createdAt,value
2018-02-25T00:01:36.380Z,45.56
2018-02-25T00:06:38.864Z,46.57
2018-02-25T00:11:41.698Z,46.71
2018-02-25T00:16:44.160Z,47.25
2018-02-25T00:21:46.636Z,47.59
2018-02-25T00:26:49.113Z,48.15
2018-02-25T00:31:51.600Z,48.85
2018-02-25T00:36:54.098Z,48.53
2018-02-25T00:41:56.663Z,48.98
2018-02-25T00:46:59.136Z,49.29
2018-02-25T00:52:01.621Z,49.68
2018-02-25T00:57:04.104Z,50.00
2018-02-25T01:02:06.580Z,50.76
2018-02-25T01:07:09.085Z,51.46
2018-02-25T01:12:11.574Z,52.53
2018-02-25T01:17:14.057Z,52.91
2018-02-25T01:22:16.555Z,53.02
2018-02-25T01:27:19.034Z,54.04
2018-02-25T01:32:22.374Z,54.62
2018-02-25T01:37:24.865Z,55.21
2018-02-25T01:42:27.348Z,55.61
2018-02-25T01:47:29.824Z,55.41
2018-02-25T01:52:32.320Z,55.57
2018-02-25T01:57:35.292Z,56.05
2018-02-25T02:02:37.765Z,55.94
2018-02-25T02:07:40.272Z,55.70
2018-02-25T02:12:42.746Z,55.70
2018-02-25T02:17:45.256Z,56.08
2018-02-25T02:22:47.760Z,56.60
2018-02-25T02:27:50.260Z,56.29
2018-02-25T02:32:52.741Z,56.54
2018-02-25T02:37:55.241Z,56.55
2018-02-25T02:42:57.740Z,56.67
2018-02-25T02:48:00.217Z,56.65
2018-02-25T02:53:02.703Z,56.31
2018-02-25T02:58:05.180Z,55.29
2018-02-25T03:03:07.660Z,55.31
2018-02-25T03:08:10.165Z,55.21
2018-02-25T03:13:12.713Z,55.50
2018-02-25T03:18:15.236Z,55.68
2018-02-25T03:23:17.927Z,56.17
2018-02-25T03:28:20.434Z,56.81
2018-02-25T03:33:22.944Z,56.18
2018-02-25T03:38:25.460Z,54.76
2018-02-25T03:43:27.948Z,54.20
2018-02-25T03:48:30.412Z,54.53
2018-02-25T03:53:32.896Z,54.50
2018-02-25T03:58:35.352Z,54.82
2018-02-25T04:03:37.888Z,54.07
2018-02-25T04:08:40.392Z,53.90
2018-02-25T04:13:42.913Z,54.86
2018-02-25T04:18:45.423Z,55.02
2018-02-25T04:23:47.952Z,55.49
2018-02-25T04:28:50.444Z,56.35
2018-02-25T04:33:52.953Z,56.77
2018-02-25T04:38:55.438Z,56.83
2018-02-25T04:43:57.925Z,56.63
2018-02-25T04:49:00.459Z,56.10
2018-02-25T04:54:02.962Z,55.33
2018-02-25T04:59:05.469Z,55.65
2018-02-25T05:04:08.013Z,55.88
2018-02-25T05:09:10.570Z,56.76
2018-02-25T05:14:13.126Z,56.74
2018-02-25T05:19:15.648Z,56.81
2018-02-25T05:24:18.122Z,56.85
2018-02-25T05:29:20.630Z,57.12
2018-02-25T05:34:23.143Z,57.75
2018-02-25T05:39:26.047Z,57.97
2018-02-25T05:44:28.534Z,58.22
2018-02-25T05:49:31.081Z,58.06
2018-02-25T05:54:33.568Z,58.32
2018-02-25T05:59:36.051Z,58.39
2018-02-25T06:04:38.637Z,58.81
2018-02-25T06:09:41.153Z,59.14
2018-02-25T06:14:43.654Z,59.44
2018-02-25T06:19:46.142Z,59.42
2018-02-25T06:24:48.641Z,59.39
2018-02-25T06:29:51.116Z,59.16
2018-02-25T06:34:53.618Z,58.55
2018-02-25T06:39:56.278Z,57.96
2018-02-25T06:44:58.832Z,58.15
2018-02-25T06:50:01.327Z,58.14
2018-02-25T06:55:03.809Z,58.31
2018-02-25T07:00:06.294Z,58.45
2018-02-25T07:05:08.824Z,57.84
2018-02-25T07:10:11.381Z,57.91
2018-02-25T07:15:13.901Z,57.60
2018-02-25T07:20:16.422Z,57.12
2018-02-25T07:25:18.984Z,56.64
2018-02-25T07:30:21.448Z,55.26
2018-02-25T07:35:23.928Z,53.70
2018-02-25T07:40:26.926Z,52.72
2018-02-25T07:45:29.445Z,51.34
2018-02-25T07:50:31.915Z,50.40
2018-02-25T07:55:34.392Z,50.01
2018-02-25T08:00:36.981Z,48.40
2018-02-25T08:05:39.489Z,47.45
2018-02-25T08:10:42.690Z,45.06
2018-02-25T08:15:45.485Z,42.52
2018-02-25T08:20:47.977Z,43.54
2018-02-25T08:25:50.478Z,42.36
2018-02-25T08:30:52.977Z,40.96
2018-02-25T08:35:56.134Z,40.12
2018-02-25T08:40:58.629Z,39.83
2018-02-25T08:46:01.164Z,39.07
2018-02-25T08:51:03.634Z,38.76
2018-02-25T08:56:06.114Z,38.89
2018-02-25T09:01:08.626Z,38.38
2018-02-25T09:06:11.238Z,38.07
2018-02-25T09:11:13.767Z,38.48
2018-02-25T09:16:16.256Z,37.64
2018-02-25T09:21:18.764Z,37.72
2018-02-25T09:26:21.243Z,37.38
2018-02-25T09:31:23.721Z,36.89
2018-02-25T09:36:26.179Z,37.07
2018-02-25T09:41:28.678Z,37.42
2018-02-25T09:46:31.157Z,36.17
2018-02-25T09:51:33.619Z,36.19
2018-02-25T09:56:36.097Z,35.21
2018-02-25T10:01:38.663Z,34.41
2018-02-25T10:06:41.206Z,34.42
2018-02-25T10:11:43.705Z,34.03
2018-02-25T10:16:46.256Z,33.71
2018-02-25T10:21:48.720Z,33.29
2018-02-25T10:26:51.194Z,29.58
2018-02-25T10:31:53.733Z,27.53
2018-02-25T10:36:56.212Z,26.55
2018-02-25T10:41:58.684Z,26.14
2018-02-25T10:47:01.172Z,28.33
2018-02-25T10:52:03.650Z,27.02
2018-02-25T10:57:06.154Z,26.74
2018-02-25T11:02:08.729Z,26.63
2018-02-25T11:07:11.221Z,28.17
2018-02-25T11:12:13.727Z,30.43
2018-02-25T11:17:16.224Z,26.90
2018-02-25T11:22:18.711Z,26.08
2018-02-25T11:27:21.211Z,26.01
2018-02-25T11:32:23.675Z,26.00
2018-02-25T11:37:26.141Z,27.54
2018-02-25T11:42:28.608Z,28.72
2018-02-25T11:47:31.077Z,28.59
2018-02-25T11:52:33.545Z,28.54
2018-02-25T11:57:36.022Z,28.39
2018-02-25T12:02:38.573Z,29.35
2018-02-25T12:07:41.118Z,29.16
2018-02-25T12:12:43.639Z,28.92
2018-02-25T12:17:46.148Z,29.75
2018-02-25T12:22:48.673Z,28.59
2018-02-25T12:27:51.140Z,28.80
2018-02-25T12:32:53.640Z,28.11
2018-02-25T12:37:57.570Z,27.51
2018-02-25T12:43:00.210Z,28.54
2018-02-25T12:48:02.731Z,28.30
2018-02-25T12:53:06.056Z,28.16
2018-02-25T12:58:08.876Z,29.59
2018-02-25T13:03:12.298Z,29.17
2018-02-25T13:13:39.522Z,27.16
2018-02-25T13:18:42.012Z,27.37
2018-02-25T13:23:44.800Z,28.18
2018-02-25T13:28:47.426Z,29.53
2018-02-25T13:33:49.913Z,29.71
2018-02-25T13:38:52.539Z,30.31
2018-02-25T13:43:55.963Z,28.69
2018-02-25T13:48:58.413Z,29.45
2018-02-25T13:54:00.875Z,30.49
2018-02-25T13:59:03.341Z,29.90
2018-02-25T14:04:05.817Z,29.84
2018-02-25T14:09:08.387Z,30.43
2018-02-25T14:14:10.950Z,29.92
2018-02-25T14:19:14.415Z,29.69
2018-02-25T14:24:16.976Z,30.73
2018-02-25T14:29:19.529Z,30.80
2018-02-25T14:34:22.020Z,30.31
2018-02-25T14:39:24.506Z,31.37
2018-02-25T14:44:26.994Z,31.85
2018-02-25T14:49:29.472Z,31.72
2018-02-25T14:54:31.942Z,31.62
2018-02-25T14:59:34.438Z,31.59
2018-02-25T15:04:36.977Z,31.86
2018-02-25T15:09:39.676Z,31.32
2018-02-25T15:14:42.171Z,30.86
2018-02-25T15:19:44.804Z,31.51
2018-02-25T15:24:47.298Z,31.56
2018-02-25T15:29:49.843Z,31.64
2018-02-25T15:34:52.462Z,31.68
2018-02-25T15:39:54.929Z,32.72
2018-02-25T15:44:57.602Z,32.47
2018-02-25T15:50:00.079Z,32.98
2018-02-25T15:55:02.635Z,33.74
2018-02-25T16:00:05.119Z,33.72
2018-02-25T16:05:07.608Z,34.04
2018-02-25T16:10:10.124Z,33.85
2018-02-25T16:15:12.673Z,34.17
2018-02-25T16:20:15.253Z,34.43
2018-02-25T16:25:17.826Z,34.69
2018-02-25T16:30:20.320Z,34.94
2018-02-25T16:35:22.787Z,35.18
2018-02-25T16:40:25.264Z,35.45
2018-02-25T16:45:27.813Z,35.52
2018-02-25T16:50:30.335Z,35.81
2018-02-25T16:55:32.854Z,35.85
2018-02-25T17:00:35.459Z,35.77
2018-02-25T17:05:40.752Z,36.20
2018-02-25T17:10:43.409Z,36.49
2018-02-25T17:15:45.997Z,36.88
2018-02-25T17:20:48.495Z,37.18
2018-02-25T17:25:51.012Z,37.74
2018-02-25T17:30:53.481Z,38.21
2018-02-25T17:35:55.964Z,38.84
2018-02-25T17:40:58.486Z,39.11
2018-02-25T17:46:00.966Z,39.08
2018-02-25T17:51:03.522Z,39.11
2018-02-25T17:56:05.998Z,39.50
2018-02-25T18:01:08.500Z,39.63
2018-02-25T18:06:11.144Z,39.24
2018-02-25T18:11:13.925Z,39.32
2018-02-25T18:16:16.445Z,39.72
2018-02-25T18:21:19.038Z,39.17
2018-02-25T18:26:21.525Z,39.77
2018-02-25T18:31:23.994Z,39.63
2018-02-25T18:36:26.470Z,40.00
2018-02-25T18:41:28.946Z,39.78
2018-02-25T18:46:31.629Z,39.51
2018-02-25T18:51:34.122Z,39.63
2018-02-25T18:56:36.663Z,40.07
2018-02-25T19:01:39.197Z,40.35
2018-02-25T19:06:42.220Z,40.60
2018-02-25T19:11:44.831Z,41.26
2018-02-25T19:16:47.330Z,41.59
2018-02-25T19:21:49.824Z,42.01
2018-02-25T19:26:52.303Z,43.07
2018-02-25T19:31:54.771Z,43.29
2018-02-25T19:37:03.056Z,43.29
2018-02-25T19:42:05.578Z,43.70
2018-02-25T19:47:08.626Z,44.17
2018-02-25T19:52:11.229Z,44.05
2018-02-25T19:57:14.011Z,43.80
2018-02-25T20:02:16.570Z,43.92
2018-02-25T20:07:19.094Z,43.82
2018-02-25T20:12:21.625Z,43.71
2018-02-25T20:17:24.136Z,44.09
2018-02-25T20:22:26.604Z,46.67
2018-02-25T20:27:29.147Z,49.24
2018-02-25T20:32:31.611Z,51.40
2018-02-25T20:37:34.205Z,53.27
2018-02-25T20:42:36.724Z,54.74
2018-02-25T20:47:39.285Z,55.23
2018-02-25T20:52:41.804Z,56.09
2018-02-25T20:57:44.286Z,56.93
2018-02-25T21:02:47.120Z,57.89
2018-02-25T21:07:49.600Z,59.37
2018-02-25T21:12:52.101Z,61.24
2018-02-25T21:17:54.587Z,61.31
2018-02-25T21:22:57.068Z,61.54
2018-02-25T21:27:59.540Z,61.38
2018-02-25T21:33:02.156Z,60.98
2018-02-25T21:38:05.755Z,60.88
2018-02-25T21:43:08.303Z,61.32
2018-02-25T21:48:10.894Z,60.86
2018-02-25T21:53:14.343Z,61.06
2018-02-25T21:58:22.454Z,61.81
2018-02-25T22:03:30.499Z,62.12
2018-02-25T22:08:33.872Z,63.25
2018-02-25T22:13:36.449Z,64.06
2018-02-25T22:18:39.048Z,65.11
2018-02-25T22:23:41.560Z,65.50
2018-02-25T22:28:44.046Z,65.52
2018-02-25T22:33:46.560Z,65.22
2018-02-25T22:38:49.076Z,64.42
2018-02-25T22:43:51.575Z,64.00
2018-02-25T22:48:54.150Z,64.43
2018-02-25T22:53:56.632Z,63.30
2018-02-25T22:58:59.118Z,63.24
2018-02-25T23:04:01.641Z,64.00
2018-02-25T23:09:04.360Z,64.25
2018-02-25T23:14:06.866Z,64.44
2018-02-25T23:19:09.400Z,64.12
2018-02-25T23:24:11.908Z,62.55
2018-02-25T23:29:14.401Z,62.12
2018-02-25T23:34:16.896Z,61.82
2018-02-25T23:39:19.375Z,61.37
2018-02-25T23:44:21.857Z,61.45
2018-02-25T23:49:24.350Z,60.90
2018-02-25T23:54:26.828Z,60.91
2018-02-25T23:59:29.313Z,61.61
